sensor_id;sensor_type;location;lat;lon;timestamp;temperature;humidity
65048;DHT22;52089;51.362;-2.384;2022-11-20T00:01:29;6.80;99.90
65048;DHT22;52089;51.362;-2.384;2022-11-20T00:05:11;6.80;99.90
65048;DHT22;52089;51.362;-2.384;2022-11-20T00:08:58;6.80;99.90
65048;DHT22;52089;51.362;-2.384;2022-11-20T00:12:40;6.80;99.90
65048;DHT22;52089;51.362;-2.384;2022-11-20T00:16:23;6.80;99.90
65048;DHT22;52089;51.362;-2.384;2022-11-20T00:20:06;6.80;99.90
65048;DHT22;52089;51.362;-2.384;2022-11-20T00:23:48;6.80;99.90
65048;DHT22;52089;51.362;-2.384;2022-11-20T00:27:31;6.70;99.90
65048;DHT22;52089;51.362;-2.384;2022-11-20T00:31:15;6.80;99.90
65048;DHT22;52089;51.362;-2.384;2022-11-20T00:34:56;6.80;99.90
65048;DHT22;52089;51.362;-2.384;2022-11-20T00:38:38;6.80;99.90
65048;DHT22;52089;51.362;-2.384;2022-11-20T00:42:20;6.80;99.90
65048;DHT22;52089;51.362;-2.384;2022-11-20T00:46:05;6.90;99.90
65048;DHT22;52089;51.362;-2.384;2022-11-20T00:49:47;6.90;99.90
65048;DHT22;52089;51.362;-2.384;2022-11-20T00:53:30;6.90;99.90
65048;DHT22;52089;51.362;-2.384;2022-11-20T00:57:14;6.90;99.90
65048;DHT22;52089;51.362;-2.384;2022-11-20T01:01:07;7.00;99.90
65048;DHT22;52089;51.362;-2.384;2022-11-20T01:04:49;7.00;99.90
65048;DHT22;52089;51.362;-2.384;2022-11-20T01:08:32;7.00;99.90
65048;DHT22;52089;51.362;-2.384;2022-11-20T01:12:14;7.00;99.90
65048;DHT22;52089;51.362;-2.384;2022-11-20T01:16:02;7.00;99.90
65048;DHT22;52089;51.362;-2.384;2022-11-20T01:19:44;7.10;99.90
65048;DHT22;52089;51.362;-2.384;2022-11-20T01:23:26;7.10;99.90
65048;DHT22;52089;51.362;-2.384;2022-11-20T01:27:07;7.10;99.90
65048;DHT22;52089;51.362;-2.384;2022-11-20T01:30:49;7.10;99.90
65048;DHT22;52089;51.362;-2.384;2022-11-20T01:34:31;7.20;99.90
65048;DHT22;52089;51.362;-2.384;2022-11-20T01:38:14;7.10;99.90
65048;DHT22;52089;51.362;-2.384;2022-11-20T01:41:56;7.20;99.90
65048;DHT22;52089;51.362;-2.384;2022-11-20T01:50:11;7.30;99.90
65048;DHT22;52089;51.362;-2.384;2022-11-20T01:53:55;7.30;99.90
65048;DHT22;52089;51.362;-2.384;2022-11-20T01:57:40;7.30;99.90
65048;DHT22;52089;51.362;-2.384;2022-11-20T02:01:22;7.30;99.90
65048;DHT22;52089;51.362;-2.384;2022-11-20T02:09:00;7.30;99.90
65048;DHT22;52089;51.362;-2.384;2022-11-20T02:12:41;7.30;99.90
65048;DHT22;52089;51.362;-2.384;2022-11-20T02:16:47;7.40;99.90
65048;DHT22;52089;51.362;-2.384;2022-11-20T02:20:29;7.40;99.90
65048;DHT22;52089;51.362;-2.384;2022-11-20T02:24:21;7.40;99.90
65048;DHT22;52089;51.362;-2.384;2022-11-20T02:28:04;7.50;99.90
65048;DHT22;52089;51.362;-2.384;2022-11-20T02:31:46;7.50;99.90
65048;DHT22;52089;51.362;-2.384;2022-11-20T02:39:11;7.50;99.90
65048;DHT22;52089;51.362;-2.384;2022-11-20T02:42:55;7.50;99.90
65048;DHT22;52089;51.362;-2.384;2022-11-20T02:46:37;7.60;99.90
65048;DHT22;52089;51.362;-2.384;2022-11-20T02:50:19;7.60;99.90
65048;DHT22;52089;51.362;-2.384;2022-11-20T02:54:02;7.70;99.90
65048;DHT22;52089;51.362;-2.384;2022-11-20T02:57:43;7.70;99.90
65048;DHT22;52089;51.362;-2.384;2022-11-20T03:01:25;7.80;99.90
65048;DHT22;52089;51.362;-2.384;2022-11-20T03:05:07;7.80;99.90
65048;DHT22;52089;51.362;-2.384;2022-11-20T03:08:49;7.90;99.90
65048;DHT22;52089;51.362;-2.384;2022-11-20T03:12:31;7.90;99.90
65048;DHT22;52089;51.362;-2.384;2022-11-20T03:16:15;7.90;99.90
65048;DHT22;52089;51.362;-2.384;2022-11-20T03:19:57;8.00;99.90
65048;DHT22;52089;51.362;-2.384;2022-11-20T03:23:40;8.10;99.90
65048;DHT22;52089;51.362;-2.384;2022-11-20T03:27:22;8.10;99.90
65048;DHT22;52089;51.362;-2.384;2022-11-20T03:31:11;8.20;99.90
65048;DHT22;52089;51.362;-2.384;2022-11-20T03:34:53;8.30;99.90
65048;DHT22;52089;51.362;-2.384;2022-11-20T03:38:35;8.40;99.90
65048;DHT22;52089;51.362;-2.384;2022-11-20T03:42:17;8.50;99.90
65048;DHT22;52089;51.362;-2.384;2022-11-20T03:46:18;8.50;99.90
65048;DHT22;52089;51.362;-2.384;2022-11-20T03:54:00;8.60;99.90
65048;DHT22;52089;51.362;-2.384;2022-11-20T03:57:41;8.60;99.90
65048;DHT22;52089;51.362;-2.384;2022-11-20T04:01:25;8.60;99.90
65048;DHT22;52089;51.362;-2.384;2022-11-20T04:05:08;8.50;99.90
65048;DHT22;52089;51.362;-2.384;2022-11-20T04:08:50;8.40;99.90
65048;DHT22;52089;51.362;-2.384;2022-11-20T04:12:34;8.40;99.90
65048;DHT22;52089;51.362;-2.384;2022-11-20T04:16:16;8.30;99.90
65048;DHT22;52089;51.362;-2.384;2022-11-20T04:19:58;8.20;99.90
65048;DHT22;52089;51.362;-2.384;2022-11-20T04:23:40;8.20;99.90
65048;DHT22;52089;51.362;-2.384;2022-11-20T04:27:22;8.20;99.90
65048;DHT22;52089;51.362;-2.384;2022-11-20T04:31:09;8.20;99.90
65048;DHT22;52089;51.362;-2.384;2022-11-20T04:34:51;8.30;99.90
65048;DHT22;52089;51.362;-2.384;2022-11-20T04:38:33;8.30;99.90
65048;DHT22;52089;51.362;-2.384;2022-11-20T04:42:15;8.40;99.90
65048;DHT22;52089;51.362;-2.384;2022-11-20T04:46:12;8.40;99.90
65048;DHT22;52089;51.362;-2.384;2022-11-20T04:49:54;8.40;99.90
65048;DHT22;52089;51.362;-2.384;2022-11-20T04:53:35;8.30;99.90
65048;DHT22;52089;51.362;-2.384;2022-11-20T04:57:17;8.20;99.90
65048;DHT22;52089;51.362;-2.384;2022-11-20T05:01:04;8.10;99.90
65048;DHT22;52089;51.362;-2.384;2022-11-20T05:04:46;8.00;99.90
65048;DHT22;52089;51.362;-2.384;2022-11-20T05:08:29;7.90;99.90
65048;DHT22;52089;51.362;-2.384;2022-11-20T05:12:11;7.80;99.90
65048;DHT22;52089;51.362;-2.384;2022-11-20T05:15:52;7.80;99.90
65048;DHT22;52089;51.362;-2.384;2022-11-20T05:19:34;7.70;99.90
65048;DHT22;52089;51.362;-2.384;2022-11-20T05:23:16;7.70;99.90
65048;DHT22;52089;51.362;-2.384;2022-11-20T05:26:57;7.60;99.90
65048;DHT22;52089;51.362;-2.384;2022-11-20T05:30:39;7.60;99.90
65048;DHT22;52089;51.362;-2.384;2022-11-20T05:34:21;7.60;99.90
65048;DHT22;52089;51.362;-2.384;2022-11-20T05:38:03;7.60;99.90
65048;DHT22;52089;51.362;-2.384;2022-11-20T05:41:44;7.50;99.90
65048;DHT22;52089;51.362;-2.384;2022-11-20T05:45:26;7.50;99.90
65048;DHT22;52089;51.362;-2.384;2022-11-20T05:49:08;7.50;99.90
65048;DHT22;52089;51.362;-2.384;2022-11-20T05:52:50;7.50;99.90
65048;DHT22;52089;51.362;-2.384;2022-11-20T05:56:32;7.40;99.90
65048;DHT22;52089;51.362;-2.384;2022-11-20T06:00:14;7.50;99.90
65048;DHT22;52089;51.362;-2.384;2022-11-20T06:03:56;7.40;99.90
65048;DHT22;52089;51.362;-2.384;2022-11-20T06:07:38;7.50;99.90
65048;DHT22;52089;51.362;-2.384;2022-11-20T06:11:20;7.50;99.90
65048;DHT22;52089;51.362;-2.384;2022-11-20T06:15:02;7.40;99.90
65048;DHT22;52089;51.362;-2.384;2022-11-20T06:18:45;7.40;99.90
65048;DHT22;52089;51.362;-2.384;2022-11-20T06:22:27;7.40;99.90
65048;DHT22;52089;51.362;-2.384;2022-11-20T06:26:14;7.40;99.90
65048;DHT22;52089;51.362;-2.384;2022-11-20T06:29:56;7.40;99.90
65048;DHT22;52089;51.362;-2.384;2022-11-20T06:33:38;7.40;99.90
65048;DHT22;52089;51.362;-2.384;2022-11-20T06:37:20;7.30;99.90
65048;DHT22;52089;51.362;-2.384;2022-11-20T06:41:03;7.20;99.90
65048;DHT22;52089;51.362;-2.384;2022-11-20T06:44:45;7.10;99.90
65048;DHT22;52089;51.362;-2.384;2022-11-20T06:48:28;7.20;99.90
65048;DHT22;52089;51.362;-2.384;2022-11-20T06:52:10;7.10;99.90
65048;DHT22;52089;51.362;-2.384;2022-11-20T06:55:52;7.10;99.90
65048;DHT22;52089;51.362;-2.384;2022-11-20T06:59:36;7.10;99.90
65048;DHT22;52089;51.362;-2.384;2022-11-20T07:03:18;7.10;99.90
65048;DHT22;52089;51.362;-2.384;2022-11-20T07:07:00;7.00;99.90
65048;DHT22;52089;51.362;-2.384;2022-11-20T07:10:42;7.00;99.90
65048;DHT22;52089;51.362;-2.384;2022-11-20T07:14:24;6.90;99.90
65048;DHT22;52089;51.362;-2.384;2022-11-20T07:18:05;6.90;99.90
65048;DHT22;52089;51.362;-2.384;2022-11-20T07:21:47;6.90;99.90
65048;DHT22;52089;51.362;-2.384;2022-11-20T07:25:29;6.80;99.90
65048;DHT22;52089;51.362;-2.384;2022-11-20T07:29:12;6.80;99.90
65048;DHT22;52089;51.362;-2.384;2022-11-20T07:32:55;6.80;99.90
65048;DHT22;52089;51.362;-2.384;2022-11-20T07:36:37;6.70;99.90
65048;DHT22;52089;51.362;-2.384;2022-11-20T07:40:21;6.70;99.90
65048;DHT22;52089;51.362;-2.384;2022-11-20T07:44:03;6.70;99.90
65048;DHT22;52089;51.362;-2.384;2022-11-20T07:47:45;6.70;99.90
65048;DHT22;52089;51.362;-2.384;2022-11-20T07:51:27;6.70;99.90
65048;DHT22;52089;51.362;-2.384;2022-11-20T07:55:10;6.70;99.90
65048;DHT22;52089;51.362;-2.384;2022-11-20T07:58:52;6.80;99.90
65048;DHT22;52089;51.362;-2.384;2022-11-20T08:02:34;6.80;99.90
65048;DHT22;52089;51.362;-2.384;2022-11-20T08:06:17;6.90;99.90
65048;DHT22;52089;51.362;-2.384;2022-11-20T08:10:01;7.00;99.90
65048;DHT22;52089;51.362;-2.384;2022-11-20T08:13:43;7.00;99.90
65048;DHT22;52089;51.362;-2.384;2022-11-20T08:17:43;7.00;99.90
65048;DHT22;52089;51.362;-2.384;2022-11-20T08:21:45;7.00;99.90
65048;DHT22;52089;51.362;-2.384;2022-11-20T08:25:28;7.00;99.90
65048;DHT22;52089;51.362;-2.384;2022-11-20T08:29:10;7.00;99.90
65048;DHT22;52089;51.362;-2.384;2022-11-20T08:32:53;7.00;99.90
65048;DHT22;52089;51.362;-2.384;2022-11-20T08:36:35;7.00;99.90
65048;DHT22;52089;51.362;-2.384;2022-11-20T08:40:17;7.00;99.90
65048;DHT22;52089;51.362;-2.384;2022-11-20T08:44:02;7.20;99.90
65048;DHT22;52089;51.362;-2.384;2022-11-20T08:47:45;7.30;99.90
65048;DHT22;52089;51.362;-2.384;2022-11-20T08:51:27;7.40;99.90
65048;DHT22;52089;51.362;-2.384;2022-11-20T08:55:09;7.40;99.90
65048;DHT22;52089;51.362;-2.384;2022-11-20T08:58:51;7.40;99.90
65048;DHT22;52089;51.362;-2.384;2022-11-20T09:02:53;7.40;99.90
65048;DHT22;52089;51.362;-2.384;2022-11-20T09:06:35;7.70;99.90
65048;DHT22;52089;51.362;-2.384;2022-11-20T09:10:17;8.20;99.90
65048;DHT22;52089;51.362;-2.384;2022-11-20T09:14:06;8.80;99.90
65048;DHT22;52089;51.362;-2.384;2022-11-20T09:17:59;9.30;99.90
65048;DHT22;52089;51.362;-2.384;2022-11-20T09:21:41;9.90;99.90
65048;DHT22;52089;51.362;-2.384;2022-11-20T09:25:23;10.50;99.90
65048;DHT22;52089;51.362;-2.384;2022-11-20T09:29:05;10.90;99.90
65048;DHT22;52089;51.362;-2.384;2022-11-20T09:32:47;11.30;99.90
65048;DHT22;52089;51.362;-2.384;2022-11-20T09:36:29;11.80;99.90
65048;DHT22;52089;51.362;-2.384;2022-11-20T09:40:23;12.30;99.90
65048;DHT22;52089;51.362;-2.384;2022-11-20T09:52:19;14.10;99.90
65048;DHT22;52089;51.362;-2.384;2022-11-20T09:56:04;14.60;99.90
65048;DHT22;52089;51.362;-2.384;2022-11-20T09:59:59;15.20;99.90
65048;DHT22;52089;51.362;-2.384;2022-11-20T10:03:56;15.80;99.90
65048;DHT22;52089;51.362;-2.384;2022-11-20T10:08:25;16.40;99.90
65048;DHT22;52089;51.362;-2.384;2022-11-20T10:20:40;17.30;99.90
65048;DHT22;52089;51.362;-2.384;2022-11-20T10:24:44;17.70;99.90
65048;DHT22;52089;51.362;-2.384;2022-11-20T10:28:52;18.00;99.90
65048;DHT22;52089;51.362;-2.384;2022-11-20T10:32:44;18.20;99.90
65048;DHT22;52089;51.362;-2.384;2022-11-20T10:36:33;17.70;99.90
65048;DHT22;52089;51.362;-2.384;2022-11-20T10:40:27;17.30;99.90
65048;DHT22;52089;51.362;-2.384;2022-11-20T10:44:26;17.10;99.90
65048;DHT22;52089;51.362;-2.384;2022-11-20T10:48:27;17.40;99.90
65048;DHT22;52089;51.362;-2.384;2022-11-20T10:52:42;18.10;99.90
65048;DHT22;52089;51.362;-2.384;2022-11-20T10:56:52;18.50;99.90
65048;DHT22;52089;51.362;-2.384;2022-11-20T11:00:35;18.80;99.90
65048;DHT22;52089;51.362;-2.384;2022-11-20T11:08:15;19.20;99.90
65048;DHT22;52089;51.362;-2.384;2022-11-20T11:11:58;19.50;99.90
65048;DHT22;52089;51.362;-2.384;2022-11-20T11:15:47;19.70;99.90
65048;DHT22;52089;51.362;-2.384;2022-11-20T11:19:29;19.80;99.90
65048;DHT22;52089;51.362;-2.384;2022-11-20T11:27:13;20.40;99.90
65048;DHT22;52089;51.362;-2.384;2022-11-20T11:30:58;20.20;99.90
65048;DHT22;52089;51.362;-2.384;2022-11-20T11:34:40;20.20;99.90
65048;DHT22;52089;51.362;-2.384;2022-11-20T11:38:40;20.40;99.90
65048;DHT22;52089;51.362;-2.384;2022-11-20T11:42:22;20.80;99.90
65048;DHT22;52089;51.362;-2.384;2022-11-20T11:46:32;21.30;99.90
65048;DHT22;52089;51.362;-2.384;2022-11-20T11:53:53;21.40;99.90
65048;DHT22;52089;51.362;-2.384;2022-11-20T11:57:54;20.90;99.90
65048;DHT22;52089;51.362;-2.384;2022-11-20T12:01:53;19.60;99.90
65048;DHT22;52089;51.362;-2.384;2022-11-20T12:05:42;18.30;99.90
65048;DHT22;52089;51.362;-2.384;2022-11-20T12:09:29;17.40;99.90
65048;DHT22;52089;51.362;-2.384;2022-11-20T12:17:02;16.20;99.90
65048;DHT22;52089;51.362;-2.384;2022-11-20T12:28:51;13.70;99.90
65048;DHT22;52089;51.362;-2.384;2022-11-20T12:41:17;11.60;99.90
65048;DHT22;52089;51.362;-2.384;2022-11-20T12:58:09;10.30;99.90
65048;DHT22;52089;51.362;-2.384;2022-11-20T13:02:02;10.30;99.90
65048;DHT22;52089;51.362;-2.384;2022-11-20T13:09:55;10.90;99.90
65048;DHT22;52089;51.362;-2.384;2022-11-20T13:17:42;11.00;99.90
65048;DHT22;52089;51.362;-2.384;2022-11-20T13:21:47;11.00;99.90
65048;DHT22;52089;51.362;-2.384;2022-11-20T13:25:35;11.20;99.90
65048;DHT22;52089;51.362;-2.384;2022-11-20T13:29:18;11.40;99.90
65048;DHT22;52089;51.362;-2.384;2022-11-20T13:33:08;12.40;99.90
65048;DHT22;52089;51.362;-2.384;2022-11-20T13:36:53;13.70;99.90
65048;DHT22;52089;51.362;-2.384;2022-11-20T13:40:52;14.70;99.90
65048;DHT22;52089;51.362;-2.384;2022-11-20T13:44:42;15.60;99.90
65048;DHT22;52089;51.362;-2.384;2022-11-20T13:48:28;15.70;99.90
65048;DHT22;52089;51.362;-2.384;2022-11-20T13:56:38;14.60;99.90
65048;DHT22;52089;51.362;-2.384;2022-11-20T14:00:22;13.60;99.90
65048;DHT22;52089;51.362;-2.384;2022-11-20T14:04:08;12.80;99.90
65048;DHT22;52089;51.362;-2.384;2022-11-20T14:07:54;12.10;99.90
65048;DHT22;52089;51.362;-2.384;2022-11-20T14:11:47;11.50;99.90
65048;DHT22;52089;51.362;-2.384;2022-11-20T14:15:36;11.00;99.90
65048;DHT22;52089;51.362;-2.384;2022-11-20T14:19:32;10.60;99.90
65048;DHT22;52089;51.362;-2.384;2022-11-20T14:23:27;10.20;99.90
65048;DHT22;52089;51.362;-2.384;2022-11-20T14:27:17;9.80;99.90
65048;DHT22;52089;51.362;-2.384;2022-11-20T14:30:59;9.50;99.90
65048;DHT22;52089;51.362;-2.384;2022-11-20T14:34:43;9.50;99.90
65048;DHT22;52089;51.362;-2.384;2022-11-20T14:38:31;10.20;99.90
65048;DHT22;52089;51.362;-2.384;2022-11-20T14:42:43;10.90;99.90
65048;DHT22;52089;51.362;-2.384;2022-11-20T14:46:25;11.30;99.90
65048;DHT22;52089;51.362;-2.384;2022-11-20T14:50:20;11.80;99.90
65048;DHT22;52089;51.362;-2.384;2022-11-20T14:54:17;11.60;99.90
65048;DHT22;52089;51.362;-2.384;2022-11-20T14:58:02;11.10;99.90
65048;DHT22;52089;51.362;-2.384;2022-11-20T15:05:47;10.30;99.90
65048;DHT22;52089;51.362;-2.384;2022-11-20T15:09:30;10.10;99.90
65048;DHT22;52089;51.362;-2.384;2022-11-20T15:13:15;9.90;99.90
65048;DHT22;52089;51.362;-2.384;2022-11-20T15:16:57;9.80;99.90
65048;DHT22;52089;51.362;-2.384;2022-11-20T15:20:41;9.70;99.90
65048;DHT22;52089;51.362;-2.384;2022-11-20T15:24:23;9.60;99.90
65048;DHT22;52089;51.362;-2.384;2022-11-20T15:28:16;9.60;99.90
65048;DHT22;52089;51.362;-2.384;2022-11-20T15:31:59;9.40;99.90
65048;DHT22;52089;51.362;-2.384;2022-11-20T15:35:41;9.30;99.90
65048;DHT22;52089;51.362;-2.384;2022-11-20T15:39:23;9.20;99.90
65048;DHT22;52089;51.362;-2.384;2022-11-20T15:43:05;9.10;99.90
65048;DHT22;52089;51.362;-2.384;2022-11-20T15:46:54;9.00;99.90
65048;DHT22;52089;51.362;-2.384;2022-11-20T15:50:49;8.90;99.90
65048;DHT22;52089;51.362;-2.384;2022-11-20T15:54:32;8.70;99.90
65048;DHT22;52089;51.362;-2.384;2022-11-20T15:58:14;8.60;99.90
65048;DHT22;52089;51.362;-2.384;2022-11-20T16:01:55;8.50;99.90
65048;DHT22;52089;51.362;-2.384;2022-11-20T16:05:37;8.40;99.90
65048;DHT22;52089;51.362;-2.384;2022-11-20T16:09:19;8.20;99.90
65048;DHT22;52089;51.362;-2.384;2022-11-20T16:13:02;8.20;99.90
65048;DHT22;52089;51.362;-2.384;2022-11-20T16:17:03;8.00;99.90
65048;DHT22;52089;51.362;-2.384;2022-11-20T16:20:46;7.90;99.90
65048;DHT22;52089;51.362;-2.384;2022-11-20T16:24:29;7.80;99.90
65048;DHT22;52089;51.362;-2.384;2022-11-20T16:28:11;7.70;99.90
65048;DHT22;52089;51.362;-2.384;2022-11-20T16:31:59;7.60;99.90
65048;DHT22;52089;51.362;-2.384;2022-11-20T16:35:41;7.60;99.90
65048;DHT22;52089;51.362;-2.384;2022-11-20T16:39:24;7.50;99.90
65048;DHT22;52089;51.362;-2.384;2022-11-20T16:43:10;7.50;99.90
65048;DHT22;52089;51.362;-2.384;2022-11-20T16:46:55;7.40;99.90
65048;DHT22;52089;51.362;-2.384;2022-11-20T16:50:36;7.40;99.90
65048;DHT22;52089;51.362;-2.384;2022-11-20T16:54:18;7.30;99.90
65048;DHT22;52089;51.362;-2.384;2022-11-20T16:58:08;7.30;99.90
65048;DHT22;52089;51.362;-2.384;2022-11-20T17:01:50;7.20;99.90
65048;DHT22;52089;51.362;-2.384;2022-11-20T17:05:33;7.10;99.90
65048;DHT22;52089;51.362;-2.384;2022-11-20T17:09:15;7.20;99.90
65048;DHT22;52089;51.362;-2.384;2022-11-20T17:13:00;7.20;99.90
65048;DHT22;52089;51.362;-2.384;2022-11-20T17:16:44;7.20;99.90
65048;DHT22;52089;51.362;-2.384;2022-11-20T17:20:29;7.10;99.90
65048;DHT22;52089;51.362;-2.384;2022-11-20T17:24:26;7.10;99.90
65048;DHT22;52089;51.362;-2.384;2022-11-20T17:28:12;7.10;99.90
65048;DHT22;52089;51.362;-2.384;2022-11-20T17:31:54;7.00;99.90
65048;DHT22;52089;51.362;-2.384;2022-11-20T17:35:36;7.00;99.90
65048;DHT22;52089;51.362;-2.384;2022-11-20T17:39:20;7.00;99.90
65048;DHT22;52089;51.362;-2.384;2022-11-20T17:43:02;6.90;99.90
65048;DHT22;52089;51.362;-2.384;2022-11-20T17:46:44;6.90;99.90
65048;DHT22;52089;51.362;-2.384;2022-11-20T17:50:26;6.90;99.90
65048;DHT22;52089;51.362;-2.384;2022-11-20T17:54:09;6.80;99.90
65048;DHT22;52089;51.362;-2.384;2022-11-20T17:57:51;6.80;99.90
65048;DHT22;52089;51.362;-2.384;2022-11-20T18:01:33;6.70;99.90
65048;DHT22;52089;51.362;-2.384;2022-11-20T18:05:15;6.70;99.90
65048;DHT22;52089;51.362;-2.384;2022-11-20T18:08:58;6.70;99.90
65048;DHT22;52089;51.362;-2.384;2022-11-20T18:12:40;6.60;99.90
65048;DHT22;52089;51.362;-2.384;2022-11-20T18:16:22;6.50;99.90
65048;DHT22;52089;51.362;-2.384;2022-11-20T18:20:05;6.40;99.90
65048;DHT22;52089;51.362;-2.384;2022-11-20T18:24:07;6.30;99.90
65048;DHT22;52089;51.362;-2.384;2022-11-20T18:27:52;6.20;99.90
65048;DHT22;52089;51.362;-2.384;2022-11-20T18:31:34;6.10;99.90
65048;DHT22;52089;51.362;-2.384;2022-11-20T18:35:16;6.00;99.90
65048;DHT22;52089;51.362;-2.384;2022-11-20T18:38:58;6.00;99.90
65048;DHT22;52089;51.362;-2.384;2022-11-20T18:42:42;6.00;99.90
65048;DHT22;52089;51.362;-2.384;2022-11-20T18:46:42;5.80;99.90
65048;DHT22;52089;51.362;-2.384;2022-11-20T18:50:24;5.80;99.90
65048;DHT22;52089;51.362;-2.384;2022-11-20T18:54:06;5.80;99.90
65048;DHT22;52089;51.362;-2.384;2022-11-20T18:57:48;5.80;99.90
65048;DHT22;52089;51.362;-2.384;2022-11-20T19:01:30;5.80;99.90
65048;DHT22;52089;51.362;-2.384;2022-11-20T19:05:13;5.80;99.90
65048;DHT22;52089;51.362;-2.384;2022-11-20T19:08:55;5.90;99.90
65048;DHT22;52089;51.362;-2.384;2022-11-20T19:12:37;6.00;99.90
65048;DHT22;52089;51.362;-2.384;2022-11-20T19:16:19;6.10;99.90
65048;DHT22;52089;51.362;-2.384;2022-11-20T19:20:03;6.10;99.90
65048;DHT22;52089;51.362;-2.384;2022-11-20T19:23:55;6.20;99.90
65048;DHT22;52089;51.362;-2.384;2022-11-20T19:27:37;6.20;99.90
65048;DHT22;52089;51.362;-2.384;2022-11-20T19:31:23;6.30;99.90
65048;DHT22;52089;51.362;-2.384;2022-11-20T19:35:07;6.40;99.90
65048;DHT22;52089;51.362;-2.384;2022-11-20T19:38:49;6.40;99.90
65048;DHT22;52089;51.362;-2.384;2022-11-20T19:42:32;6.50;99.90
65048;DHT22;52089;51.362;-2.384;2022-11-20T19:46:14;6.50;99.90
65048;DHT22;52089;51.362;-2.384;2022-11-20T19:49:56;6.60;99.90
65048;DHT22;52089;51.362;-2.384;2022-11-20T19:53:38;6.50;99.90
65048;DHT22;52089;51.362;-2.384;2022-11-20T19:57:20;6.50;99.90
65048;DHT22;52089;51.362;-2.384;2022-11-20T20:01:22;6.50;99.90
65048;DHT22;52089;51.362;-2.384;2022-11-20T20:05:04;6.60;99.90
65048;DHT22;52089;51.362;-2.384;2022-11-20T20:08:52;6.60;99.90
65048;DHT22;52089;51.362;-2.384;2022-11-20T20:12:34;6.50;99.90
65048;DHT22;52089;51.362;-2.384;2022-11-20T20:16:21;6.50;99.90
65048;DHT22;52089;51.362;-2.384;2022-11-20T20:20:03;6.40;99.90
65048;DHT22;52089;51.362;-2.384;2022-11-20T20:23:49;6.40;99.90
65048;DHT22;52089;51.362;-2.384;2022-11-20T20:27:31;6.30;99.90
65048;DHT22;52089;51.362;-2.384;2022-11-20T20:31:16;6.20;99.90
65048;DHT22;52089;51.362;-2.384;2022-11-20T20:34:58;6.30;99.90
65048;DHT22;52089;51.362;-2.384;2022-11-20T20:38:40;6.20;99.90
65048;DHT22;52089;51.362;-2.384;2022-11-20T20:42:23;6.20;99.90
65048;DHT22;52089;51.362;-2.384;2022-11-20T20:46:06;6.20;99.90
65048;DHT22;52089;51.362;-2.384;2022-11-20T20:49:48;6.20;99.90
65048;DHT22;52089;51.362;-2.384;2022-11-20T20:53:30;6.10;99.90
65048;DHT22;52089;51.362;-2.384;2022-11-20T20:57:11;6.00;99.90
65048;DHT22;52089;51.362;-2.384;2022-11-20T21:00:54;5.90;99.90
65048;DHT22;52089;51.362;-2.384;2022-11-20T21:04:35;5.80;99.90
65048;DHT22;52089;51.362;-2.384;2022-11-20T21:08:17;5.70;99.90
65048;DHT22;52089;51.362;-2.384;2022-11-20T21:12:03;5.60;99.90
65048;DHT22;52089;51.362;-2.384;2022-11-20T21:15:49;5.50;99.90
65048;DHT22;52089;51.362;-2.384;2022-11-20T21:19:31;5.50;99.90
65048;DHT22;52089;51.362;-2.384;2022-11-20T21:23:13;5.50;99.90
65048;DHT22;52089;51.362;-2.384;2022-11-20T21:26:56;5.60;99.90
65048;DHT22;52089;51.362;-2.384;2022-11-20T21:30:38;5.60;99.90
65048;DHT22;52089;51.362;-2.384;2022-11-20T21:34:20;5.70;99.90
65048;DHT22;52089;51.362;-2.384;2022-11-20T21:38:03;5.70;99.90
65048;DHT22;52089;51.362;-2.384;2022-11-20T21:41:45;5.80;99.90
65048;DHT22;52089;51.362;-2.384;2022-11-20T21:45:27;5.90;99.90
65048;DHT22;52089;51.362;-2.384;2022-11-20T21:49:09;5.90;99.90
65048;DHT22;52089;51.362;-2.384;2022-11-20T21:52:51;5.90;99.90
65048;DHT22;52089;51.362;-2.384;2022-11-20T21:56:33;6.00;99.90
65048;DHT22;52089;51.362;-2.384;2022-11-20T22:00:15;6.00;99.90
65048;DHT22;52089;51.362;-2.384;2022-11-20T22:04:01;6.00;99.90
65048;DHT22;52089;51.362;-2.384;2022-11-20T22:07:43;6.10;99.90
65048;DHT22;52089;51.362;-2.384;2022-11-20T22:11:25;6.10;99.90
65048;DHT22;52089;51.362;-2.384;2022-11-20T22:15:08;6.10;99.90
65048;DHT22;52089;51.362;-2.384;2022-11-20T22:18:52;6.10;99.90
65048;DHT22;52089;51.362;-2.384;2022-11-20T22:22:33;6.10;99.90
65048;DHT22;52089;51.362;-2.384;2022-11-20T22:26:17;6.10;99.90
65048;DHT22;52089;51.362;-2.384;2022-11-20T22:29:59;6.00;99.90
65048;DHT22;52089;51.362;-2.384;2022-11-20T22:33:40;6.00;99.90
65048;DHT22;52089;51.362;-2.384;2022-11-20T22:37:22;5.90;99.90
65048;DHT22;52089;51.362;-2.384;2022-11-20T22:44:47;5.90;99.90
65048;DHT22;52089;51.362;-2.384;2022-11-20T22:48:29;6.00;99.90
65048;DHT22;52089;51.362;-2.384;2022-11-20T22:52:10;6.00;99.90
65048;DHT22;52089;51.362;-2.384;2022-11-20T22:55:52;6.00;99.90
65048;DHT22;52089;51.362;-2.384;2022-11-20T22:59:34;6.10;99.90
65048;DHT22;52089;51.362;-2.384;2022-11-20T23:03:16;6.10;99.90
65048;DHT22;52089;51.362;-2.384;2022-11-20T23:06:58;6.10;99.90
65048;DHT22;52089;51.362;-2.384;2022-11-20T23:10:39;6.20;99.90
65048;DHT22;52089;51.362;-2.384;2022-11-20T23:14:21;6.20;99.90
65048;DHT22;52089;51.362;-2.384;2022-11-20T23:18:08;6.30;99.90
65048;DHT22;52089;51.362;-2.384;2022-11-20T23:21:50;6.30;99.90
65048;DHT22;52089;51.362;-2.384;2022-11-20T23:25:31;6.20;99.90
65048;DHT22;52089;51.362;-2.384;2022-11-20T23:29:13;6.20;99.90
65048;DHT22;52089;51.362;-2.384;2022-11-20T23:32:55;6.20;99.90
65048;DHT22;52089;51.362;-2.384;2022-11-20T23:36:37;6.10;99.90
65048;DHT22;52089;51.362;-2.384;2022-11-20T23:40:18;6.10;99.90
65048;DHT22;52089;51.362;-2.384;2022-11-20T23:44:00;6.10;99.90
65048;DHT22;52089;51.362;-2.384;2022-11-20T23:47:42;6.10;99.90
65048;DHT22;52089;51.362;-2.384;2022-11-20T23:51:24;6.00;99.90
65048;DHT22;52089;51.362;-2.384;2022-11-20T23:55:05;5.90;99.90
65048;DHT22;52089;51.362;-2.384;2022-11-20T23:58:47;5.80;99.90
